Crystal Lake, IL (60014)

7:34 AM CDT on August 30, 2015 (GMT -0500)
City Hall | | Change Station
CLOSE
Current Station
Personal Weather Station
Location: Crystal Lake, IL
Elevation: 927 ft
Nearby Weather Stations

Elev 927 ft 42.25 °N, 88.32 °W | Updated 2 minutes ago

Overcast
Overcast
63.5 °F
Feels Like 63.5 °F
N
2.9
Wind Variable Wind from NE
Gusts 5.8 mph

Today
High -- | Low -- °F
--% Chance of Precip.
Yesterday
High -- | Low -- °F
Precip. -- in
6:16 AM 7:30 PM
Full, 99% visible
Pressure 30.07 in
Visibility 4.0 miles
Clouds Few 600 ft
Overcast 2800 ft
Dew Point 61 °F
Humidity 90%
Rainfall 0.00 in
Snow Depth Not available.
UV 0 out of 12
Pollen 9.30 out of 12
Air Quality Not available.
Flu Activity Not available.
SPECI KDPA 301228Z 00000KT 4SM BR FEW006 OVC028 18/17 A3007 RMK AO2 T01830172
Pressure 30.07 in
Visibility 4.0 miles
Clouds Few 600 ft
Overcast 2800 ft
Dew Point 61 °F
Humidity 90%
Rainfall 0.00 in
Snow Depth Not available.
UV 0 out of 12
Pollen 9.30 out of 12
Air Quality Not available.
Flu Activity Not available.
SPECI KDPA 301228Z 00000KT 4SM BR FEW006 OVC028 18/17 A3007 RMK AO2 T01830172

10-Day Weather Forecast

×

Almanac

Astronomy

Aug. 30, 2015 Rise Set
Actual Time
Civil Twilight
Nautical Twilight
Astronomical Twilight
Moon
Length of Visible Light
Length of Day
Tomorrow will be .
, % of the Moon is Illuminated

Today's Extremes

State Highs State Lows

Community

WunderPhotos

Upload Photos

1,850,940 photos uploaded!

WunderBlogs® & News

Nearby

Air Quality

  Air Quality AQ Index Pollutant
Not available.

Snow Depth

Station Depth Elevation

Earthquake Activity

City Distance Mag. Time & Date
Minimum magnitude displayed is 2.5.

Coastal Water Temperatures

Place Temperature

Stations

Nearby Weather Stations

Station Location Temp. Windchill Dew Point Humidity Wind Precip. Elev Updated Type